Time;durP1;ratioP1;P1;durP2;ratioP2;P2;SDS_P1;SDS_P2;PMS_P1;PMS_P2;Temp;Humidity;BMP_temperature;BMP_pressure;BME280_temperature;BME280_humidity;BME280_pressure;Samples;Min_cycle;Max_cycle;Signal;HPM_P1;HPM_P2
2022/01/10 00:00:54;;;;;;;1999.90;999.90;;;;;;;6.52;78.92;100297.19;15720275;28;20107;-66
2022/01/10 00:08:30;;;;;;;1999.90;999.90;;;;;;;6.45;77.69;100311.47;15706113;28;20045;-65
2022/01/10 00:16:03;;;;;;;1999.90;999.90;;;;;;;6.24;78.21;100324.19;15679390;28;20644;-66
2022/01/10 00:23:37;;;;;;;1999.90;999.90;;;;;;;6.34;78.26;100335.84;15700332;28;20049;-66
2022/01/10 00:31:10;;;;;;;1999.90;999.90;;;;;;;6.08;78.95;100352.28;15717390;28;20132;-66
2022/01/10 00:38:44;;;;;;;1999.90;999.90;;;;;;;6.34;78.81;100371.06;15706051;28;20068;-66
2022/01/10 00:46:17;;;;;;;1999.90;999.90;;;;;;;6.10;78.57;100385.19;15707822;28;20560;-65
2022/01/10 00:53:52;;;;;;;1999.90;999.90;;;;;;;6.37;78.09;100398.19;15718108;28;20045;-66
2022/01/10 01:01:25;;;;;;;1999.90;999.90;;;;;;;6.48;77.32;100409.84;15682329;28;20102;-64
2022/01/10 01:09:04;;;;;;;1999.90;999.90;;;;;;;6.70;77.01;100415.41;15709644;28;20036;-66
2022/01/10 01:16:46;;;;;;;1999.90;999.90;;;;;;;6.69;76.94;100440.69;15564954;23;20048;-59
2022/01/10 01:24:20;;;;;;;1999.90;999.90;;;;;;;6.81;76.74;100461.16;15525360;28;20045;-56
2022/01/10 01:31:53;;;;;;;1999.90;999.90;;;;;;;6.93;76.65;100471.69;15515441;28;20035;-57
2022/01/10 01:39:30;;;;;;;1999.90;999.90;;;;;;;7.08;76.32;100485.19;15511381;28;20046;-58
2022/01/10 01:47:05;;;;;;;1999.90;999.90;;;;;;;7.12;76.43;100504.81;15508060;28;20132;-57
2022/01/10 01:54:39;;;;;;;1999.90;999.90;;;;;;;7.16;76.32;100520.50;15506975;28;20050;-58
2022/01/10 02:02:12;;;;;;;1999.90;999.90;;;;;;;7.19;75.88;100533.78;15525280;28;20049;-53
2022/01/10 02:09:46;;;;;;;1999.90;999.90;;;;;;;7.18;76.01;100550.72;15518058;28;20462;-54
2022/01/10 02:17:22;;;;;;;1999.90;999.90;;;;;;;7.23;75.78;100556.16;15508811;28;20050;-60
2022/01/10 02:25:01;;;;;;;1999.90;999.90;;;;;;;7.38;75.38;100568.81;15518467;28;20101;-53
2022/01/10 02:32:35;;;;;;;1999.90;999.90;;;;;;;7.37;75.55;100590.22;15501813;28;20078;-55
2022/01/10 02:40:14;;;;;;;1999.90;999.90;;;;;;;7.33;75.81;100603.09;15512412;28;20037;-56
2022/01/10 02:47:48;;;;;;;1999.90;999.90;;;;;;;7.11;76.51;100605.84;15522967;28;20051;-55
2022/01/10 02:55:22;;;;;;;1999.90;999.90;;;;;;;7.22;76.06;100627.50;15502922;28;20050;-57
2022/01/10 03:02:56;;;;;;;1999.90;999.90;;;;;;;7.31;75.46;100644.22;15509140;28;20049;-57
2022/01/10 03:10:32;;;;;;;1999.90;999.90;;;;;;;7.34;75.91;100662.19;15476013;28;20034;-60
2022/01/10 03:18:05;;;;;;;1999.90;999.90;;;;;;;7.34;75.22;100671.34;15475996;28;20176;-56
2022/01/10 03:25:39;;;;;;;1999.90;999.90;;;;;;;7.35;75.96;100681.31;15515922;28;20464;-56
2022/01/10 03:33:12;;;;;;;1999.90;999.90;;;;;;;7.28;75.92;100707.84;15528039;28;20046;-56
2022/01/10 03:40:46;;;;;;;1999.90;999.90;;;;;;;7.40;75.55;100719.22;15509174;28;20113;-65
2022/01/10 03:48:23;;;;;;;1999.90;999.90;;;;;;;7.37;75.52;100729.00;15530911;28;20105;-59
2022/01/10 03:55:58;;;;;;;1999.90;999.90;;;;;;;7.39;75.33;100734.25;15507368;28;20100;-55
2022/01/10 04:03:31;;;;;;;1999.90;999.90;;;;;;;7.39;75.41;100739.81;15529339;28;20400;-59
2022/01/10 04:11:13;;;;;;;1999.90;999.90;;;;;;;7.38;75.58;100758.41;15503653;28;20045;-55
2022/01/10 04:18:45;;;;;;;1999.90;999.90;;;;;;;7.30;75.95;100772.22;15504403;28;20156;-55
2022/01/10 04:26:21;;;;;;;1999.90;999.90;;;;;;;7.28;76.26;100783.63;15517764;28;20388;-55
2022/01/10 04:33:55;;;;;;;1999.90;999.90;;;;;;;7.31;76.04;100802.44;15461668;28;20104;-55
2022/01/10 04:41:29;;;;;;;1999.90;999.90;;;;;;;7.28;76.04;100828.03;15515260;28;20038;-54
2022/01/10 04:49:09;;;;;;;1999.90;999.90;;;;;;;7.34;76.00;100840.69;15472215;28;20100;-57
2022/01/10 04:56:43;;;;;;;1999.90;999.90;;;;;;;7.45;75.05;100835.75;15507551;28;20038;-56
2022/01/10 05:04:16;;;;;;;1999.90;999.90;;;;;;;7.34;75.66;100857.34;15509369;28;20496;-60
2022/01/10 05:11:50;;;;;;;1999.90;999.90;;;;;;;7.38;76.14;100871.41;15540822;28;20419;-59
2022/01/10 05:19:24;;;;;;;1999.90;999.90;;;;;;;7.33;75.86;100883.44;15523483;28;20403;-60
2022/01/10 05:26:58;;;;;;;1999.90;999.90;;;;;;;7.37;76.03;100903.09;15525653;28;20499;-55
2022/01/10 05:34:35;;;;;;;1999.90;999.90;;;;;;;7.36;75.70;100915.31;15539745;28;20144;-53
2022/01/10 05:42:09;;;;;;;1999.90;999.90;;;;;;;7.37;76.21;100939.19;15504384;28;20123;-57
2022/01/10 05:49:47;;;;;;;1999.90;999.90;;;;;;;7.31;75.69;100952.34;15501330;28;20475;-56
2022/01/10 05:57:25;;;;;;;1999.90;999.90;;;;;;;7.41;76.00;100966.03;15496851;28;20383;-57
2022/01/10 06:05:05;;;;;;;1999.90;999.90;;;;;;;7.40;75.63;100994.09;15513656;28;20046;-56
2022/01/10 06:12:47;;;;;;;1999.90;999.90;;;;;;;7.42;76.21;101002.94;15455380;28;20126;-60
2022/01/10 06:20:24;;;;;;;1999.90;999.90;;;;;;;7.45;75.55;101013.44;15530856;28;20046;-63
2022/01/10 06:28:01;;;;;;;1999.90;999.90;;;;;;;7.31;76.31;101026.47;15510658;28;20053;-58
2022/01/10 06:35:35;;;;;;;1999.90;999.90;;;;;;;7.36;75.50;101037.47;15503847;28;20038;-60
2022/01/10 06:43:10;;;;;;;1999.90;999.90;;;;;;;7.16;75.59;101064.44;15509357;28;20077;-58
2022/01/10 06:50:46;;;;;;;1999.90;999.90;;;;;;;7.07;75.82;101082.06;15519682;28;20050;-59
2022/01/10 06:58:22;;;;;;;1999.90;999.90;;;;;;;6.97;76.04;101098.88;15478621;28;20065;-57
2022/01/10 07:05:55;;;;;;;1999.90;999.90;;;;;;;7.19;75.48;101112.97;15476264;28;20078;-60
2022/01/10 07:13:30;;;;;;;1999.90;999.90;;;;;;;7.31;75.37;101130.00;15492655;28;20050;-58
2022/01/10 07:21:06;;;;;;;1999.90;999.90;;;;;;;7.30;75.07;101149.75;15490782;28;20053;-55
2022/01/10 07:28:40;;;;;;;1999.90;999.90;;;;;;;7.20;75.85;101168.19;15491119;28;20061;-55
2022/01/10 07:36:12;;;;;;;1999.90;999.90;;;;;;;7.15;75.97;101187.69;15479746;28;20407;-56
2022/01/10 07:43:46;;;;;;;1999.90;999.90;;;;;;;7.25;75.88;101208.91;15489236;28;20427;-58
2022/01/10 07:51:20;;;;;;;1999.90;999.90;;;;;;;7.28;75.53;101236.06;15489180;28;20133;-52
2022/01/10 07:58:56;;;;;;;1999.90;999.90;;;;;;;7.33;75.84;101243.53;15490208;28;20122;-53
2022/01/10 08:06:28;;;;;;;1999.90;999.90;;;;;;;7.46;75.86;101251.13;15488157;28;20046;-54
2022/01/10 08:14:05;;;;;;;1999.90;999.90;;;;;;;7.57;75.79;101269.28;15481705;28;20140;-55
2022/01/10 08:21:38;;;;;;;1999.90;999.90;;;;;;;7.48;75.21;101288.56;15485743;28;20050;-52
2022/01/10 08:29:11;;;;;;;1999.90;999.90;;;;;;;7.76;75.54;101309.00;15469632;28;20655;-55
2022/01/10 08:36:44;;;;;;;1999.90;999.90;;;;;;;7.89;75.26;101318.53;15485541;28;20586;-50
2022/01/10 08:44:18;;;;;;;1999.90;999.90;;;;;;;8.16;74.13;101342.06;15483388;28;20069;-54
2022/01/10 08:51:54;;;;;;;1999.90;999.90;;;;;;;8.11;73.85;101352.09;15485782;28;20046;-54
2022/01/10 08:59:29;;;;;;;1999.90;999.90;;;;;;;8.10;74.59;101369.09;15484452;28;20108;-54
2022/01/10 09:07:02;;;;;;;1999.90;999.90;;;;;;;7.91;74.87;101382.97;15486707;28;20046;-55
2022/01/10 09:14:36;;;;;;;1999.90;999.90;;;;;;;8.15;74.52;101399.63;15473255;28;20767;-60
2022/01/10 09:22:09;;;;;;;1999.90;999.90;;;;;;;8.37;73.69;101408.22;15487937;28;20053;-58
2022/01/10 09:29:45;;;;;;;1999.90;999.90;;;;;;;8.32;74.01;101419.34;15486768;28;20051;-55
2022/01/10 09:37:20;;;;;;;1999.90;999.90;;;;;;;8.82;72.11;101425.28;15484283;28;20130;-57
2022/01/10 09:44:56;;;;;;;1999.90;999.90;;;;;;;8.80;72.28;101447.03;15482891;28;20042;-58
2022/01/10 09:52:29;;;;;;;1999.90;999.90;;;;;;;9.00;71.52;101448.66;15488369;28;20050;-55
2022/01/10 10:00:04;;;;;;;1999.90;999.90;;;;;;;8.96;70.86;101475.41;15494216;28;20429;-56
2022/01/10 10:07:44;;;;;;;1999.90;999.90;;;;;;;9.09;71.06;101483.00;15494978;28;20483;-54
2022/01/10 10:15:28;;;;;;;1999.90;999.90;;;;;;;8.78;72.29;101499.38;15492630;28;20062;-57
2022/01/10 10:23:04;;;;;;;1999.90;999.90;;;;;;;8.95;71.66;101512.75;15491440;28;20141;-57
2022/01/10 10:30:38;;;;;;;1999.90;999.90;;;;;;;9.15;70.71;101528.28;15492344;28;20045;-55
2022/01/10 10:38:11;;;;;;;1999.90;999.90;;;;;;;9.04;70.94;101543.50;15492745;28;20104;-56
2022/01/10 10:45:48;;;;;;;1999.90;999.90;;;;;;;9.05;70.42;101542.38;15493719;28;20419;-55
2022/01/10 10:53:21;;;;;;;1999.90;999.90;;;;;;;8.82;71.38;101561.66;15491392;28;20050;-61
2022/01/10 11:00:57;;;;;;;1999.90;999.90;;;;;;;8.76;71.44;101554.53;15483805;28;20062;-64
2022/01/10 11:08:32;;;;;;;1999.90;999.90;;;;;;;8.90;71.88;101583.25;15478471;28;20046;-58
2022/01/10 11:16:08;;;;;;;1999.90;999.90;;;;;;;9.19;70.67;101585.88;15487334;28;20050;-54
2022/01/10 11:23:44;;;;;;;1999.90;999.90;;;;;;;9.18;68.95;101594.53;15490045;28;20157;-53
2022/01/10 11:31:23;;;;;;;1999.90;999.90;;;;;;;9.17;69.63;101604.00;15489948;28;20454;-53
2022/01/10 11:38:57;;;;;;;1999.90;999.90;;;;;;;9.38;68.64;101610.94;15489557;28;20112;-59
2022/01/10 11:46:37;;;;;;;1999.90;999.90;;;;;;;9.72;67.95;101621.75;15489316;28;20073;-55
2022/01/10 11:54:13;;;;;;;1999.90;999.90;;;;;;;9.55;68.86;101633.47;15485827;28;20186;-57
2022/01/10 12:01:53;;;;;;;1999.90;999.90;;;;;;;9.61;68.67;101642.59;15481340;28;20208;-56
2022/01/10 12:09:27;;;;;;;1999.90;999.90;;;;;;;9.29;69.15;101654.50;15486632;28;20042;-60
2022/01/10 12:17:02;;;;;;;1999.90;999.90;;;;;;;9.58;68.98;101665.47;15469620;28;20057;-58
2022/01/10 12:24:35;;;;;;;1999.90;999.90;;;;;;;9.42;68.79;101686.34;15488099;28;20079;-58
2022/01/10 12:32:12;;;;;;;1999.90;999.90;;;;;;;9.54;68.58;101695.91;15488062;28;20049;-60
2022/01/10 12:39:49;;;;;;;1999.90;999.90;;;;;;;9.38;68.78;101718.72;15504233;28;20479;-52
2022/01/10 12:47:24;;;;;;;1999.90;999.90;;;;;;;9.14;70.44;101735.47;15492573;28;20482;-61
2022/01/10 12:54:57;;;;;;;1999.90;999.90;;;;;;;9.30;68.90;101744.47;15488908;28;20082;-60
2022/01/10 13:02:34;;;;;;;1999.90;999.90;;;;;;;9.07;69.41;101762.88;15485200;28;20416;-59
2022/01/10 13:10:19;;;;;;;1999.90;999.90;;;;;;;8.83;70.03;101762.88;15493340;23;20403;31
2022/01/10 13:17:55;;;;;;;1999.90;999.90;;;;;;;9.10;70.09;101777.03;15427038;28;20054;-65
2022/01/10 13:25:34;;;;;;;1999.90;999.90;;;;;;;9.10;69.87;101788.16;15398491;28;20138;-65
2022/01/10 13:33:11;;;;;;;1999.90;999.90;;;;;;;9.21;69.91;101800.00;15388636;28;20471;-65
2022/01/10 13:40:45;;;;;;;1999.90;999.90;;;;;;;9.07;70.88;101826.91;15393572;28;20512;-65
2022/01/10 13:48:21;;;;;;;1999.90;999.90;;;;;;;8.95;71.15;101849.56;15364167;28;20027;-64
2022/01/10 13:56:10;;;;;;;1999.90;999.90;;;;;;;9.10;70.55;101870.88;15352861;28;20508;-64
2022/01/10 14:03:48;;;;;;;1999.90;999.90;;;;;;;8.84;71.80;101873.06;15374610;28;20412;-64
2022/01/10 14:11:25;;;;;;;1999.90;999.90;;;;;;;8.86;71.67;101884.78;15355430;28;20481;-65
2022/01/10 14:18:59;;;;;;;1999.90;999.90;;;;;;;8.79;71.94;101915.72;15357274;29;20035;-63
2022/01/10 14:26:55;;;;;;;1999.90;999.90;;;;;;;8.80;71.77;101927.69;15376525;28;20142;-64
2022/01/10 14:34:39;;;;;;;1999.90;999.90;;;;;;;8.10;72.56;101936.22;15384941;28;20051;-66
2022/01/10 14:42:30;;;;;;;1999.90;999.90;;;;;;;8.07;72.27;101957.09;15380472;28;20258;-64
2022/01/10 14:50:05;;;;;;;1999.90;999.90;;;;;;;8.00;71.97;101961.28;15377033;29;20428;-65
2022/01/10 14:57:38;;;;;;;1999.90;999.90;;;;;;;8.10;71.86;101975.97;15375872;29;20051;-67
2022/01/10 15:05:12;;;;;;;;;;;;;;;8.03;72.70;101997.72;15376290;28;20060;-64
2022/01/10 15:12:45;;;;;;;1999.90;999.90;;;;;;;7.99;72.63;102002.16;15389438;28;19922;-65
2022/01/10 15:20:19;;;;;;;1999.90;999.90;;;;;;;7.90;73.18;102026.09;15379244;28;20075;-65
2022/01/10 15:27:53;;;;;;;1999.90;999.90;;;;;;;7.78;73.31;102039.47;15364862;29;20051;-66
2022/01/10 15:35:27;;;;;;;1999.90;999.90;;;;;;;7.75;73.71;102053.94;15375153;28;20524;-66
2022/01/10 15:43:00;;;;;;;1999.90;999.90;;;;;;;7.90;73.43;102067.78;15374631;28;20114;-65
2022/01/10 15:50:34;;;;;;;1999.90;999.90;;;;;;;7.73;73.88;102087.56;15370069;28;20047;-64
2022/01/10 15:58:07;;;;;;;1999.90;999.90;;;;;;;7.67;74.56;102096.19;15375260;28;20074;-64
2022/01/10 16:05:47;;;;;;;1999.90;999.90;;;;;;;6.56;79.54;102108.84;15374216;28;20069;-65
2022/01/10 16:13:21;;;;;;;1999.90;999.90;;;;;;;6.35;80.77;102138.44;15362923;28;20139;-65
2022/01/10 16:20:55;;;;;;;1999.90;999.90;;;;;;;6.40;80.76;102141.25;15362749;28;20501;-67
2022/01/10 16:28:28;;;;;;;1999.90;999.90;;;;;;;6.15;80.55;102157.72;15359603;29;20043;-66
2022/01/10 16:36:09;;;;;;;1999.90;999.90;;;;;;;6.36;80.85;102168.69;15355499;29;20082;-65
2022/01/10 16:43:43;;;;;;;1999.90;999.90;;;;;;;6.45;80.15;102177.31;15380261;28;20055;-66
2022/01/10 16:51:17;;;;;;;1999.90;999.90;;;;;;;6.34;80.06;102184.72;15368789;28;20047;-65
2022/01/10 16:58:49;;;;;;;1999.90;999.90;;;;;;;6.24;79.96;102206.03;15332897;28;20187;-67
2022/01/10 17:06:23;;;;;;;1999.90;999.90;;;;;;;5.97;81.59;102225.53;15384367;28;20511;-66
2022/01/10 17:13:56;;;;;;;1999.90;999.90;;;;;;;5.94;80.46;102228.81;15380664;28;20439;-65
2022/01/10 17:21:30;;;;;;;1999.90;999.90;;;;;;;5.97;80.41;102247.69;15371752;28;20090;-64
2022/01/10 17:29:03;;;;;;;1999.90;999.90;;;;;;;5.52;81.39;102262.75;15378325;28;20138;-65
2022/01/10 17:36:37;;;;;;;1999.90;999.90;;;;;;;5.16;81.03;102283.69;15360316;29;20054;-65
2022/01/10 17:44:10;;;;;;;1999.90;999.90;;;;;;;4.81;80.24;102293.22;15375536;28;20559;-65
2022/01/10 17:51:49;;;;;;;1999.90;999.90;;;;;;;4.75;79.80;102308.06;15378408;28;20505;-66
2022/01/10 17:59:22;;;;;;;1999.90;999.90;;;;;;;4.50;79.78;102321.53;15374079;29;20074;-65
2022/01/10 18:06:56;;;;;;;1999.90;999.90;;;;;;;4.23;79.15;102337.97;15380210;28;20493;-65
2022/01/10 18:14:28;;;;;;;1999.90;999.90;;;;;;;4.19;78.92;102356.97;15371650;28;20055;-65
2022/01/10 18:22:02;;;;;;;1999.90;999.90;;;;;;;4.31;77.85;102366.03;15376055;28;20052;-64
2022/01/10 18:29:35;;;;;;;1999.90;999.90;;;;;;;4.15;78.49;102383.41;15381141;28;20484;-66
2022/01/10 18:37:12;;;;;;;1999.90;999.90;;;;;;;3.90;77.31;102394.84;15379320;28;20133;-66
2022/01/10 18:44:45;;;;;;;1999.90;999.90;;;;;;;3.89;76.98;102400.63;15381220;28;20059;-64
2022/01/10 18:52:19;;;;;;;1999.90;999.90;;;;;;;3.84;76.75;102409.63;15375002;28;20047;-66
2022/01/10 18:59:53;;;;;;;1999.90;999.90;;;;;;;3.35;76.17;102427.72;15382372;28;20036;-65
2022/01/10 19:07:27;;;;;;;1999.90;999.90;;;;;;;3.44;75.68;102429.84;15359796;29;20043;-64
2022/01/10 19:14:59;;;;;;;1999.90;999.90;;;;;;;3.56;74.43;102440.84;15370347;28;20062;-67
2022/01/10 19:22:35;;;;;;;1999.90;999.90;;;;;;;3.27;74.14;102456.50;15368940;28;20084;-68
2022/01/10 19:30:08;;;;;;;1999.90;999.90;;;;;;;3.44;74.10;102468.50;15355790;28;20484;-64
2022/01/10 19:37:42;;;;;;;1999.90;999.90;;;;;;;3.42;73.96;102478.06;15366540;29;20149;-69
2022/01/10 19:45:15;;;;;;;1999.90;999.90;;;;;;;3.40;74.49;102483.84;15355333;28;20039;-61
2022/01/10 19:52:49;;;;;;;1999.90;999.90;;;;;;;3.22;73.20;102486.72;15365433;28;20055;-67
2022/01/10 20:00:23;;;;;;;1999.90;999.90;;;;;;;3.13;72.98;102482.69;15355148;28;20484;-66
2022/01/10 20:07:57;;;;;;;1999.90;999.90;;;;;;;3.29;71.95;102498.50;15379875;28;20055;-65
2022/01/10 20:15:36;;;;;;;1999.90;999.90;;;;;;;3.21;72.31;102511.81;15369625;28;20141;-65
2022/01/10 20:23:10;;;;;;;1999.90;999.90;;;;;;;3.28;73.06;102527.16;15347579;28;20546;-63
2022/01/10 20:30:43;;;;;;;1999.90;999.90;;;;;;;2.64;72.71;102542.69;15369703;29;20047;-63
2022/01/10 20:38:20;;;;;;;1999.90;999.90;;;;;;;2.87;72.78;102555.69;15338544;28;20062;-67
2022/01/10 20:45:53;;;;;;;1999.90;999.90;;;;;;;2.58;73.36;102566.50;15333312;29;20054;-65
2022/01/10 20:53:28;;;;;;;1999.90;999.90;;;;;;;2.77;72.10;102571.97;15365153;28;20043;-63
2022/01/10 21:01:03;;;;;;;1999.90;999.90;;;;;;;2.85;71.99;102572.47;15365444;28;20636;-63
2022/01/10 21:08:38;;;;;;;1999.90;999.90;;;;;;;2.61;72.56;102584.50;15369196;28;20082;-65
2022/01/10 21:16:13;;;;;;;1999.90;999.90;;;;;;;2.48;72.45;102599.28;15361801;29;20047;-65
2022/01/10 21:23:48;;;;;;;1999.90;999.90;;;;;;;2.81;72.24;102600.72;15351822;28;20043;-64
2022/01/10 21:31:20;;;;;;;1999.90;999.90;;;;;;;2.75;72.16;102616.31;15364419;28;20035;-64
2022/01/10 21:38:55;;;;;;;1999.90;999.90;;;;;;;2.58;72.16;102618.88;15357536;29;20138;-61
2022/01/10 21:46:28;;;;;;;1999.90;999.90;;;;;;;2.69;71.68;102622.75;15373345;28;20078;-60
2022/01/10 21:54:04;;;;;;;1999.90;999.90;;;;;;;2.99;71.24;102638.44;15348245;28;20055;-65
2022/01/10 22:01:37;;;;;;;1999.90;999.90;;;;;;;2.73;71.00;102643.28;15345727;28;20459;-65
2022/01/10 22:09:11;;;;;;;1999.90;999.90;;;;;;;2.21;73.12;102650.31;15404297;28;20070;-67
2022/01/10 22:16:44;;;;;;;1999.90;999.90;;;;;;;2.35;72.92;102662.03;15392355;28;20420;-64
2022/01/10 22:24:18;;;;;;;1999.90;999.90;;;;;;;2.24;73.19;102660.88;15339482;29;20043;-64
2022/01/10 22:31:51;;;;;;;1999.90;999.90;;;;;;;1.96;74.09;102667.75;15354154;29;20043;-63
2022/01/10 22:39:24;;;;;;;1999.90;999.90;;;;;;;2.03;74.18;102676.78;15336146;29;20047;-64
2022/01/10 22:46:58;;;;;;;1999.90;999.90;;;;;;;1.69;74.95;102678.19;15352171;29;20051;-64
2022/01/10 22:54:32;;;;;;;1999.90;999.90;;;;;;;1.88;74.66;102695.59;15379203;29;20043;-63
2022/01/10 23:02:05;;;;;;;1999.90;999.90;;;;;;;1.97;73.94;102707.97;15361755;28;20051;-65
2022/01/10 23:09:39;;;;;;;1999.90;999.90;;;;;;;1.61;74.30;102696.91;15356533;29;20520;-64
2022/01/10 23:17:11;;;;;;;1999.90;999.90;;;;;;;1.39;74.84;102700.03;15360386;29;20039;-65
2022/01/10 23:24:48;;;;;;;1999.90;999.90;;;;;;;1.34;75.43;102721.03;15328794;28;20605;-63
2022/01/10 23:32:20;;;;;;;1999.90;999.90;;;;;;;1.30;75.15;102725.28;15376535;28;20058;-66
2022/01/10 23:39:54;;;;;;;1999.90;999.90;;;;;;;1.31;75.07;102730.56;15421054;28;20037;-63
2022/01/10 23:47:27;;;;;;;1999.90;999.90;;;;;;;1.18;75.54;102736.16;15380072;28;20517;-64
2022/01/10 23:55:01;;;;;;;1999.90;999.90;;;;;;;1.12;75.89;102740.63;15337553;29;20055;-63
